sensor_id;sensor_type;location;lat;lon;timestamp;temperature;humidity
47590;DHT22;33316;52.298;9.056;2023-05-07T00:02:11;12.10;91.20
47590;DHT22;33316;52.298;9.056;2023-05-07T00:04:37;12.10;91.20
47590;DHT22;33316;52.298;9.056;2023-05-07T00:07:06;12.10;91.30
47590;DHT22;33316;52.298;9.056;2023-05-07T00:09:33;12.00;91.30
47590;DHT22;33316;52.298;9.056;2023-05-07T00:11:59;12.00;91.30
47590;DHT22;33316;52.298;9.056;2023-05-07T00:14:27;12.00;91.40
47590;DHT22;33316;52.298;9.056;2023-05-07T00:16:54;12.00;91.40
47590;DHT22;33316;52.298;9.056;2023-05-07T00:19:21;12.00;91.30
47590;DHT22;33316;52.298;9.056;2023-05-07T00:21:48;12.00;91.40
47590;DHT22;33316;52.298;9.056;2023-05-07T00:24:15;12.00;91.50
47590;DHT22;33316;52.298;9.056;2023-05-07T00:26:41;12.00;91.30
47590;DHT22;33316;52.298;9.056;2023-05-07T00:29:08;11.90;91.30
47590;DHT22;33316;52.298;9.056;2023-05-07T00:31:39;11.90;91.30
47590;DHT22;33316;52.298;9.056;2023-05-07T00:34:06;11.90;91.30
47590;DHT22;33316;52.298;9.056;2023-05-07T00:36:32;11.90;91.30
47590;DHT22;33316;52.298;9.056;2023-05-07T00:39:00;11.90;91.30
47590;DHT22;33316;52.298;9.056;2023-05-07T00:41:28;11.80;91.40
47590;DHT22;33316;52.298;9.056;2023-05-07T00:43:56;11.80;91.40
47590;DHT22;33316;52.298;9.056;2023-05-07T00:46:23;11.80;91.40
47590;DHT22;33316;52.298;9.056;2023-05-07T00:48:51;11.80;91.50
47590;DHT22;33316;52.298;9.056;2023-05-07T00:51:18;11.80;91.60
47590;DHT22;33316;52.298;9.056;2023-05-07T00:53:46;11.80;91.50
47590;DHT22;33316;52.298;9.056;2023-05-07T00:56:13;11.80;91.60
47590;DHT22;33316;52.298;9.056;2023-05-07T00:58:40;11.80;91.60
47590;DHT22;33316;52.298;9.056;2023-05-07T01:01:07;11.70;91.60
47590;DHT22;33316;52.298;9.056;2023-05-07T01:03:34;11.80;91.60
47590;DHT22;33316;52.298;9.056;2023-05-07T01:06:02;11.70;91.60
47590;DHT22;33316;52.298;9.056;2023-05-07T01:08:30;11.70;91.60
47590;DHT22;33316;52.298;9.056;2023-05-07T01:11:00;11.70;91.70
47590;DHT22;33316;52.298;9.056;2023-05-07T01:13:27;11.60;91.70
47590;DHT22;33316;52.298;9.056;2023-05-07T01:15:54;11.70;91.70
47590;DHT22;33316;52.298;9.056;2023-05-07T01:18:21;11.60;91.80
47590;DHT22;33316;52.298;9.056;2023-05-07T01:20:48;11.60;91.70
47590;DHT22;33316;52.298;9.056;2023-05-07T01:23:17;11.60;91.80
47590;DHT22;33316;52.298;9.056;2023-05-07T01:25:51;11.60;91.90
47590;DHT22;33316;52.298;9.056;2023-05-07T01:28:17;11.60;91.90
47590;DHT22;33316;52.298;9.056;2023-05-07T01:30:46;11.60;91.90
47590;DHT22;33316;52.298;9.056;2023-05-07T01:33:15;11.60;92.00
47590;DHT22;33316;52.298;9.056;2023-05-07T01:35:47;11.50;91.90
47590;DHT22;33316;52.298;9.056;2023-05-07T01:38:19;11.50;92.00
47590;DHT22;33316;52.298;9.056;2023-05-07T01:40:47;11.50;92.10
47590;DHT22;33316;52.298;9.056;2023-05-07T01:43:15;11.50;92.10
47590;DHT22;33316;52.298;9.056;2023-05-07T01:45:42;11.50;92.10
47590;DHT22;33316;52.298;9.056;2023-05-07T01:48:11;11.50;92.10
47590;DHT22;33316;52.298;9.056;2023-05-07T01:50:39;11.40;92.10
47590;DHT22;33316;52.298;9.056;2023-05-07T01:53:06;11.40;92.20
47590;DHT22;33316;52.298;9.056;2023-05-07T01:55:34;11.40;92.20
47590;DHT22;33316;52.298;9.056;2023-05-07T01:58:02;11.40;92.30
47590;DHT22;33316;52.298;9.056;2023-05-07T02:00:29;11.40;92.30
47590;DHT22;33316;52.298;9.056;2023-05-07T02:02:58;11.40;92.30
47590;DHT22;33316;52.298;9.056;2023-05-07T02:05:25;11.30;92.30
47590;DHT22;33316;52.298;9.056;2023-05-07T02:07:54;11.40;92.30
47590;DHT22;33316;52.298;9.056;2023-05-07T02:10:20;11.30;92.30
47590;DHT22;33316;52.298;9.056;2023-05-07T02:12:49;11.40;92.30
47590;DHT22;33316;52.298;9.056;2023-05-07T02:15:18;11.40;92.30
47590;DHT22;33316;52.298;9.056;2023-05-07T02:18:01;11.30;92.30
47590;DHT22;33316;52.298;9.056;2023-05-07T02:20:28;11.30;92.50
47590;DHT22;33316;52.298;9.056;2023-05-07T02:22:54;11.30;92.30
47590;DHT22;33316;52.298;9.056;2023-05-07T02:25:21;11.30;92.30
47590;DHT22;33316;52.298;9.056;2023-05-07T02:27:49;11.30;92.40
47590;DHT22;33316;52.298;9.056;2023-05-07T02:30:16;11.30;92.60
47590;DHT22;33316;52.298;9.056;2023-05-07T02:32:42;11.30;92.50
47590;DHT22;33316;52.298;9.056;2023-05-07T02:35:10;11.30;92.50
47590;DHT22;33316;52.298;9.056;2023-05-07T02:37:39;11.30;92.50
47590;DHT22;33316;52.298;9.056;2023-05-07T02:40:07;11.30;92.40
47590;DHT22;33316;52.298;9.056;2023-05-07T02:42:34;11.30;92.40
47590;DHT22;33316;52.298;9.056;2023-05-07T02:45:02;11.30;92.40
47590;DHT22;33316;52.298;9.056;2023-05-07T02:47:28;11.40;92.50
47590;DHT22;33316;52.298;9.056;2023-05-07T02:49:55;11.30;92.50
47590;DHT22;33316;52.298;9.056;2023-05-07T02:52:23;11.30;92.50
47590;DHT22;33316;52.298;9.056;2023-05-07T02:54:49;11.30;92.40
47590;DHT22;33316;52.298;9.056;2023-05-07T02:57:16;11.30;92.50
47590;DHT22;33316;52.298;9.056;2023-05-07T02:59:43;11.30;92.50
47590;DHT22;33316;52.298;9.056;2023-05-07T03:02:13;11.20;92.50
47590;DHT22;33316;52.298;9.056;2023-05-07T03:04:40;11.20;92.60
47590;DHT22;33316;52.298;9.056;2023-05-07T03:07:07;11.20;92.70
47590;DHT22;33316;52.298;9.056;2023-05-07T03:09:34;11.20;92.70
47590;DHT22;33316;52.298;9.056;2023-05-07T03:12:00;11.20;92.70
47590;DHT22;33316;52.298;9.056;2023-05-07T03:14:27;11.20;92.70
47590;DHT22;33316;52.298;9.056;2023-05-07T03:16:54;11.20;92.80
47590;DHT22;33316;52.298;9.056;2023-05-07T03:19:22;11.10;92.80
47590;DHT22;33316;52.298;9.056;2023-05-07T03:21:49;11.10;92.80
47590;DHT22;33316;52.298;9.056;2023-05-07T03:24:15;11.10;92.80
47590;DHT22;33316;52.298;9.056;2023-05-07T03:26:42;11.10;92.80
47590;DHT22;33316;52.298;9.056;2023-05-07T03:29:09;11.10;92.90
47590;DHT22;33316;52.298;9.056;2023-05-07T03:31:35;11.10;92.90
47590;DHT22;33316;52.298;9.056;2023-05-07T03:34:02;11.10;92.90
47590;DHT22;33316;52.298;9.056;2023-05-07T03:36:30;11.10;92.90
47590;DHT22;33316;52.298;9.056;2023-05-07T03:38:57;11.10;92.90
47590;DHT22;33316;52.298;9.056;2023-05-07T03:41:23;11.10;92.90
47590;DHT22;33316;52.298;9.056;2023-05-07T03:43:51;11.10;92.90
47590;DHT22;33316;52.298;9.056;2023-05-07T03:46:17;11.10;92.90
47590;DHT22;33316;52.298;9.056;2023-05-07T03:48:44;11.10;92.90
47590;DHT22;33316;52.298;9.056;2023-05-07T03:51:10;11.10;92.90
47590;DHT22;33316;52.298;9.056;2023-05-07T03:53:38;11.10;92.90
47590;DHT22;33316;52.298;9.056;2023-05-07T03:56:06;11.10;92.80
47590;DHT22;33316;52.298;9.056;2023-05-07T03:58:32;11.10;92.80
47590;DHT22;33316;52.298;9.056;2023-05-07T04:00:59;11.10;92.80
47590;DHT22;33316;52.298;9.056;2023-05-07T04:03:26;11.10;92.80
47590;DHT22;33316;52.298;9.056;2023-05-07T04:05:53;11.10;92.90
47590;DHT22;33316;52.298;9.056;2023-05-07T04:08:19;11.10;92.80
47590;DHT22;33316;52.298;9.056;2023-05-07T04:10:47;11.10;92.80
47590;DHT22;33316;52.298;9.056;2023-05-07T04:13:14;11.00;92.80
47590;DHT22;33316;52.298;9.056;2023-05-07T04:15:41;11.00;92.80
47590;DHT22;33316;52.298;9.056;2023-05-07T04:18:07;11.00;92.90
47590;DHT22;33316;52.298;9.056;2023-05-07T04:20:34;11.10;92.80
47590;DHT22;33316;52.298;9.056;2023-05-07T04:23:01;11.00;92.80
47590;DHT22;33316;52.298;9.056;2023-05-07T04:25:28;11.00;92.80
47590;DHT22;33316;52.298;9.056;2023-05-07T04:27:56;11.00;92.80
47590;DHT22;33316;52.298;9.056;2023-05-07T04:30:22;11.00;92.80
47590;DHT22;33316;52.298;9.056;2023-05-07T04:32:49;11.00;92.80
47590;DHT22;33316;52.298;9.056;2023-05-07T04:35:16;11.00;92.80
47590;DHT22;33316;52.298;9.056;2023-05-07T04:37:42;11.10;92.80
47590;DHT22;33316;52.298;9.056;2023-05-07T04:40:09;11.00;92.70
47590;DHT22;33316;52.298;9.056;2023-05-07T04:42:36;11.10;92.70
47590;DHT22;33316;52.298;9.056;2023-05-07T04:45:05;11.10;92.70
47590;DHT22;33316;52.298;9.056;2023-05-07T04:47:32;11.10;92.70
47590;DHT22;33316;52.298;9.056;2023-05-07T04:49:58;11.10;92.60
47590;DHT22;33316;52.298;9.056;2023-05-07T04:52:25;11.10;92.60
47590;DHT22;33316;52.298;9.056;2023-05-07T04:54:52;11.10;92.50
47590;DHT22;33316;52.298;9.056;2023-05-07T04:57:18;11.10;92.50
47590;DHT22;33316;52.298;9.056;2023-05-07T04:59:45;11.10;92.50
47590;DHT22;33316;52.298;9.056;2023-05-07T05:02:13;11.10;92.40
47590;DHT22;33316;52.298;9.056;2023-05-07T05:04:39;11.20;92.40
47590;DHT22;33316;52.298;9.056;2023-05-07T05:07:06;11.20;92.30
47590;DHT22;33316;52.298;9.056;2023-05-07T05:09:33;11.20;92.30
47590;DHT22;33316;52.298;9.056;2023-05-07T05:11:59;11.20;92.30
47590;DHT22;33316;52.298;9.056;2023-05-07T05:14:26;11.20;92.30
47590;DHT22;33316;52.298;9.056;2023-05-07T05:16:53;11.20;92.20
47590;DHT22;33316;52.298;9.056;2023-05-07T05:19:21;11.20;92.20
47590;DHT22;33316;52.298;9.056;2023-05-07T05:21:47;11.20;92.20
47590;DHT22;33316;52.298;9.056;2023-05-07T05:24:14;11.20;92.20
47590;DHT22;33316;52.298;9.056;2023-05-07T05:26:41;11.30;92.20
47590;DHT22;33316;52.298;9.056;2023-05-07T05:29:08;11.30;92.20
47590;DHT22;33316;52.298;9.056;2023-05-07T05:31:35;11.30;92.20
47590;DHT22;33316;52.298;9.056;2023-05-07T05:34:02;11.20;92.10
47590;DHT22;33316;52.298;9.056;2023-05-07T05:36:30;11.20;92.10
47590;DHT22;33316;52.298;9.056;2023-05-07T05:38:57;11.30;92.10
47590;DHT22;33316;52.298;9.056;2023-05-07T05:41:23;11.30;92.10
47590;DHT22;33316;52.298;9.056;2023-05-07T05:43:50;11.30;92.10
47590;DHT22;33316;52.298;9.056;2023-05-07T05:46:17;11.30;92.10
47590;DHT22;33316;52.298;9.056;2023-05-07T05:48:43;11.30;92.00
47590;DHT22;33316;52.298;9.056;2023-05-07T05:51:10;11.40;92.00
47590;DHT22;33316;52.298;9.056;2023-05-07T05:53:38;11.40;92.10
47590;DHT22;33316;52.298;9.056;2023-05-07T05:56:05;11.40;92.10
47590;DHT22;33316;52.298;9.056;2023-05-07T05:58:32;11.40;92.10
47590;DHT22;33316;52.298;9.056;2023-05-07T06:00:58;11.40;92.00
47590;DHT22;33316;52.298;9.056;2023-05-07T06:03:27;11.40;92.00
47590;DHT22;33316;52.298;9.056;2023-05-07T06:05:54;11.40;92.00
47590;DHT22;33316;52.298;9.056;2023-05-07T06:08:21;11.50;92.00
47590;DHT22;33316;52.298;9.056;2023-05-07T06:10:49;11.50;92.00
47590;DHT22;33316;52.298;9.056;2023-05-07T06:13:15;11.40;92.00
47590;DHT22;33316;52.298;9.056;2023-05-07T06:15:42;11.50;92.00
47590;DHT22;33316;52.298;9.056;2023-05-07T06:18:09;11.50;92.00
47590;DHT22;33316;52.298;9.056;2023-05-07T06:20:35;11.50;92.00
47590;DHT22;33316;52.298;9.056;2023-05-07T06:23:02;11.50;92.00
47590;DHT22;33316;52.298;9.056;2023-05-07T06:25:29;11.50;91.90
47590;DHT22;33316;52.298;9.056;2023-05-07T06:27:57;11.60;92.00
47590;DHT22;33316;52.298;9.056;2023-05-07T06:30:23;11.60;91.90
47590;DHT22;33316;52.298;9.056;2023-05-07T06:32:50;11.70;91.90
47590;DHT22;33316;52.298;9.056;2023-05-07T06:35:17;11.70;91.80
47590;DHT22;33316;52.298;9.056;2023-05-07T06:37:44;11.70;91.80
47590;DHT22;33316;52.298;9.056;2023-05-07T06:40:11;11.70;91.70
47590;DHT22;33316;52.298;9.056;2023-05-07T06:42:38;11.70;91.60
47590;DHT22;33316;52.298;9.056;2023-05-07T06:45:07;11.80;91.70
47590;DHT22;33316;52.298;9.056;2023-05-07T06:47:34;11.80;91.70
47590;DHT22;33316;52.298;9.056;2023-05-07T06:50:01;11.80;91.70
47590;DHT22;33316;52.298;9.056;2023-05-07T06:52:27;11.80;91.60
47590;DHT22;33316;52.298;9.056;2023-05-07T06:54:54;11.80;91.60
47590;DHT22;33316;52.298;9.056;2023-05-07T06:57:21;11.80;91.60
47590;DHT22;33316;52.298;9.056;2023-05-07T06:59:47;11.80;91.60
47590;DHT22;33316;52.298;9.056;2023-05-07T07:02:15;11.80;91.70
47590;DHT22;33316;52.298;9.056;2023-05-07T07:04:42;11.80;91.60
47590;DHT22;33316;52.298;9.056;2023-05-07T07:07:10;11.80;91.60
47590;DHT22;33316;52.298;9.056;2023-05-07T07:09:36;11.80;91.50
47590;DHT22;33316;52.298;9.056;2023-05-07T07:12:03;11.70;91.50
47590;DHT22;33316;52.298;9.056;2023-05-07T07:14:30;11.70;91.60
47590;DHT22;33316;52.298;9.056;2023-05-07T07:16:57;11.70;91.60
47590;DHT22;33316;52.298;9.056;2023-05-07T07:19:25;11.70;91.60
47590;DHT22;33316;52.298;9.056;2023-05-07T07:21:52;11.70;91.70
47590;DHT22;33316;52.298;9.056;2023-05-07T07:24:19;11.60;91.60
47590;DHT22;33316;52.298;9.056;2023-05-07T07:26:46;11.60;91.70
47590;DHT22;33316;52.298;9.056;2023-05-07T07:29:13;11.60;91.70
47590;DHT22;33316;52.298;9.056;2023-05-07T07:31:40;11.60;91.60
47590;DHT22;33316;52.298;9.056;2023-05-07T07:34:06;11.60;91.70
47590;DHT22;33316;52.298;9.056;2023-05-07T07:36:34;11.60;91.70
47590;DHT22;33316;52.298;9.056;2023-05-07T07:39:01;11.60;91.70
47590;DHT22;33316;52.298;9.056;2023-05-07T07:41:28;11.60;91.70
47590;DHT22;33316;52.298;9.056;2023-05-07T07:43:54;11.60;91.70
47590;DHT22;33316;52.298;9.056;2023-05-07T07:46:21;11.60;91.70
47590;DHT22;33316;52.298;9.056;2023-05-07T07:48:47;11.60;91.60
47590;DHT22;33316;52.298;9.056;2023-05-07T07:51:14;11.60;91.60
47590;DHT22;33316;52.298;9.056;2023-05-07T07:53:48;11.60;91.60
47590;DHT22;33316;52.298;9.056;2023-05-07T07:56:16;11.60;91.70
47590;DHT22;33316;52.298;9.056;2023-05-07T07:58:43;11.60;91.60
47590;DHT22;33316;52.298;9.056;2023-05-07T08:01:09;11.50;91.60
47590;DHT22;33316;52.298;9.056;2023-05-07T08:03:37;11.50;91.50
47590;DHT22;33316;52.298;9.056;2023-05-07T08:06:04;11.50;91.50
47590;DHT22;33316;52.298;9.056;2023-05-07T08:08:31;11.50;91.60
47590;DHT22;33316;52.298;9.056;2023-05-07T08:10:59;11.50;91.60
47590;DHT22;33316;52.298;9.056;2023-05-07T08:13:26;11.50;91.60
47590;DHT22;33316;52.298;9.056;2023-05-07T08:15:52;11.50;91.70
47590;DHT22;33316;52.298;9.056;2023-05-07T08:18:19;11.50;91.60
47590;DHT22;33316;52.298;9.056;2023-05-07T08:20:46;11.50;91.60
47590;DHT22;33316;52.298;9.056;2023-05-07T08:23:13;11.50;91.60
47590;DHT22;33316;52.298;9.056;2023-05-07T08:25:42;11.50;91.60
47590;DHT22;33316;52.298;9.056;2023-05-07T08:28:10;11.50;91.60
47590;DHT22;33316;52.298;9.056;2023-05-07T08:30:36;11.60;91.60
47590;DHT22;33316;52.298;9.056;2023-05-07T08:33:03;11.60;91.70
47590;DHT22;33316;52.298;9.056;2023-05-07T08:35:30;11.60;91.70
47590;DHT22;33316;52.298;9.056;2023-05-07T08:37:57;11.60;91.60
47590;DHT22;33316;52.298;9.056;2023-05-07T08:40:29;11.70;91.70
47590;DHT22;33316;52.298;9.056;2023-05-07T08:43:02;11.70;91.70
47590;DHT22;33316;52.298;9.056;2023-05-07T08:45:33;11.80;91.60
47590;DHT22;33316;52.298;9.056;2023-05-07T08:48:04;11.80;91.50
47590;DHT22;33316;52.298;9.056;2023-05-07T08:50:31;11.80;91.40
47590;DHT22;33316;52.298;9.056;2023-05-07T08:52:58;11.90;91.40
47590;DHT22;33316;52.298;9.056;2023-05-07T08:55:34;12.00;91.30
47590;DHT22;33316;52.298;9.056;2023-05-07T08:58:01;12.00;91.30
47590;DHT22;33316;52.298;9.056;2023-05-07T09:00:28;12.10;91.20
47590;DHT22;33316;52.298;9.056;2023-05-07T09:02:56;12.10;91.10
47590;DHT22;33316;52.298;9.056;2023-05-07T09:05:24;12.10;91.10
47590;DHT22;33316;52.298;9.056;2023-05-07T09:07:51;12.10;91.00
47590;DHT22;33316;52.298;9.056;2023-05-07T09:10:17;12.10;90.90
47590;DHT22;33316;52.298;9.056;2023-05-07T09:12:46;12.10;90.90
47590;DHT22;33316;52.298;9.056;2023-05-07T09:15:13;12.20;90.90
47590;DHT22;33316;52.298;9.056;2023-05-07T09:17:40;12.20;90.80
47590;DHT22;33316;52.298;9.056;2023-05-07T09:20:12;12.20;90.80
47590;DHT22;33316;52.298;9.056;2023-05-07T09:22:38;12.30;90.70
47590;DHT22;33316;52.298;9.056;2023-05-07T09:25:06;12.30;90.70
47590;DHT22;33316;52.298;9.056;2023-05-07T09:27:33;12.30;90.60
47590;DHT22;33316;52.298;9.056;2023-05-07T09:30:03;12.30;90.50
47590;DHT22;33316;52.298;9.056;2023-05-07T09:32:34;12.30;90.50
47590;DHT22;33316;52.298;9.056;2023-05-07T09:35:05;12.40;90.40
47590;DHT22;33316;52.298;9.056;2023-05-07T09:37:35;12.50;90.50
47590;DHT22;33316;52.298;9.056;2023-05-07T09:40:02;12.50;90.40
47590;DHT22;33316;52.298;9.056;2023-05-07T09:42:29;12.60;90.20
47590;DHT22;33316;52.298;9.056;2023-05-07T09:44:56;12.70;90.20
47590;DHT22;33316;52.298;9.056;2023-05-07T09:47:24;12.70;90.10
47590;DHT22;33316;52.298;9.056;2023-05-07T09:49:56;12.80;90.00
47590;DHT22;33316;52.298;9.056;2023-05-07T09:52:23;12.80;89.70
47590;DHT22;33316;52.298;9.056;2023-05-07T09:54:52;12.90;89.30
47590;DHT22;33316;52.298;9.056;2023-05-07T09:57:20;12.90;89.30
47590;DHT22;33316;52.298;9.056;2023-05-07T09:59:49;12.90;89.20
47590;DHT22;33316;52.298;9.056;2023-05-07T10:02:18;13.00;88.70
47590;DHT22;33316;52.298;9.056;2023-05-07T10:04:48;13.00;88.60
47590;DHT22;33316;52.298;9.056;2023-05-07T10:07:16;13.00;88.50
47590;DHT22;33316;52.298;9.056;2023-05-07T10:09:45;13.10;88.50
47590;DHT22;33316;52.298;9.056;2023-05-07T10:12:14;13.20;88.40
47590;DHT22;33316;52.298;9.056;2023-05-07T10:14:44;13.30;87.80
47590;DHT22;33316;52.298;9.056;2023-05-07T10:17:12;13.40;88.50
47590;DHT22;33316;52.298;9.056;2023-05-07T10:19:42;13.50;87.30
47590;DHT22;33316;52.298;9.056;2023-05-07T10:22:14;13.60;87.20
47590;DHT22;33316;52.298;9.056;2023-05-07T10:24:43;13.60;86.50
47590;DHT22;33316;52.298;9.056;2023-05-07T10:27:13;13.70;86.30
47590;DHT22;33316;52.298;9.056;2023-05-07T10:29:51;13.70;85.90
47590;DHT22;33316;52.298;9.056;2023-05-07T10:32:33;13.80;85.60
47590;DHT22;33316;52.298;9.056;2023-05-07T10:35:04;13.80;85.00
47590;DHT22;33316;52.298;9.056;2023-05-07T10:37:33;13.90;85.20
47590;DHT22;33316;52.298;9.056;2023-05-07T10:40:00;13.90;85.00
47590;DHT22;33316;52.298;9.056;2023-05-07T10:42:30;14.00;85.00
47590;DHT22;33316;52.298;9.056;2023-05-07T10:44:57;14.00;84.80
47590;DHT22;33316;52.298;9.056;2023-05-07T10:47:27;14.00;84.20
47590;DHT22;33316;52.298;9.056;2023-05-07T10:50:22;14.10;84.00
47590;DHT22;33316;52.298;9.056;2023-05-07T10:53:24;14.10;84.20
47590;DHT22;33316;52.298;9.056;2023-05-07T10:56:26;14.20;83.70
47590;DHT22;33316;52.298;9.056;2023-05-07T10:59:30;14.20;83.70
47590;DHT22;33316;52.298;9.056;2023-05-07T11:02:00;14.30;83.60
47590;DHT22;33316;52.298;9.056;2023-05-07T11:04:29;14.40;83.50
47590;DHT22;33316;52.298;9.056;2023-05-07T11:07:30;14.40;83.10
47590;DHT22;33316;52.298;9.056;2023-05-07T11:10:04;14.50;82.80
47590;DHT22;33316;52.298;9.056;2023-05-07T11:12:51;14.50;83.00
47590;DHT22;33316;52.298;9.056;2023-05-07T11:15:41;14.60;82.80
47590;DHT22;33316;52.298;9.056;2023-05-07T11:18:12;14.60;82.40
47590;DHT22;33316;52.298;9.056;2023-05-07T11:20:56;14.70;82.30
47590;DHT22;33316;52.298;9.056;2023-05-07T11:26:44;14.90;82.10
47590;DHT22;33316;52.298;9.056;2023-05-07T11:29:18;14.90;81.60
47590;DHT22;33316;52.298;9.056;2023-05-07T11:31:48;14.90;81.60
47590;DHT22;33316;52.298;9.056;2023-05-07T11:34:20;15.00;81.40
47590;DHT22;33316;52.298;9.056;2023-05-07T11:36:47;15.00;81.10
47590;DHT22;33316;52.298;9.056;2023-05-07T11:39:29;15.10;81.00
47590;DHT22;33316;52.298;9.056;2023-05-07T11:41:57;15.10;80.50
47590;DHT22;33316;52.298;9.056;2023-05-07T11:44:23;15.20;80.70
47590;DHT22;33316;52.298;9.056;2023-05-07T11:46:51;15.20;80.70
47590;DHT22;33316;52.298;9.056;2023-05-07T11:49:18;15.20;81.60
47590;DHT22;33316;52.298;9.056;2023-05-07T11:51:45;15.30;80.70
47590;DHT22;33316;52.298;9.056;2023-05-07T11:54:18;15.30;80.50
47590;DHT22;33316;52.298;9.056;2023-05-07T11:56:44;15.40;80.50
47590;DHT22;33316;52.298;9.056;2023-05-07T11:59:18;15.40;80.40
47590;DHT22;33316;52.298;9.056;2023-05-07T12:01:48;15.40;79.80
47590;DHT22;33316;52.298;9.056;2023-05-07T12:04:20;15.40;79.80
47590;DHT22;33316;52.298;9.056;2023-05-07T12:06:47;15.40;80.30
47590;DHT22;33316;52.298;9.056;2023-05-07T12:09:16;15.50;80.10
47590;DHT22;33316;52.298;9.056;2023-05-07T12:11:45;15.50;80.00
47590;DHT22;33316;52.298;9.056;2023-05-07T12:14:12;15.50;80.20
47590;DHT22;33316;52.298;9.056;2023-05-07T12:16:41;15.60;80.20
47590;DHT22;33316;52.298;9.056;2023-05-07T12:19:10;15.70;79.90
47590;DHT22;33316;52.298;9.056;2023-05-07T12:21:40;15.70;79.80
47590;DHT22;33316;52.298;9.056;2023-05-07T12:24:09;15.80;79.60
47590;DHT22;33316;52.298;9.056;2023-05-07T12:26:38;15.80;79.10
47590;DHT22;33316;52.298;9.056;2023-05-07T12:29:06;15.80;78.90
47590;DHT22;33316;52.298;9.056;2023-05-07T12:31:35;15.80;78.70
47590;DHT22;33316;52.298;9.056;2023-05-07T12:34:02;15.90;79.10
47590;DHT22;33316;52.298;9.056;2023-05-07T12:36:36;15.90;79.10
47590;DHT22;33316;52.298;9.056;2023-05-07T12:39:05;15.90;78.60
47590;DHT22;33316;52.298;9.056;2023-05-07T12:41:36;15.90;78.60
47590;DHT22;33316;52.298;9.056;2023-05-07T12:44:04;15.90;78.60
47590;DHT22;33316;52.298;9.056;2023-05-07T12:46:31;16.00;78.60
47590;DHT22;33316;52.298;9.056;2023-05-07T12:48:58;16.00;78.50
47590;DHT22;33316;52.298;9.056;2023-05-07T12:51:25;16.00;78.30
47590;DHT22;33316;52.298;9.056;2023-05-07T12:53:56;16.10;78.30
47590;DHT22;33316;52.298;9.056;2023-05-07T12:56:24;16.10;78.40
47590;DHT22;33316;52.298;9.056;2023-05-07T12:58:51;16.20;78.30
47590;DHT22;33316;52.298;9.056;2023-05-07T13:01:18;16.20;77.50
47590;DHT22;33316;52.298;9.056;2023-05-07T13:03:48;16.10;77.10
47590;DHT22;33316;52.298;9.056;2023-05-07T13:06:15;16.10;77.40
47590;DHT22;33316;52.298;9.056;2023-05-07T13:08:42;16.20;77.30
47590;DHT22;33316;52.298;9.056;2023-05-07T13:11:10;16.20;77.10
47590;DHT22;33316;52.298;9.056;2023-05-07T13:13:44;16.20;77.10
47590;DHT22;33316;52.298;9.056;2023-05-07T13:16:11;16.20;77.20
47590;DHT22;33316;52.298;9.056;2023-05-07T13:18:39;16.30;77.10
47590;DHT22;33316;52.298;9.056;2023-05-07T13:21:06;16.30;76.90
47590;DHT22;33316;52.298;9.056;2023-05-07T13:23:34;16.30;76.70
47590;DHT22;33316;52.298;9.056;2023-05-07T13:26:08;16.40;76.70
47590;DHT22;33316;52.298;9.056;2023-05-07T13:28:35;16.40;76.60
47590;DHT22;33316;52.298;9.056;2023-05-07T13:31:03;16.40;76.20
47590;DHT22;33316;52.298;9.056;2023-05-07T13:33:33;16.40;76.80
47590;DHT22;33316;52.298;9.056;2023-05-07T13:36:00;16.40;76.10
47590;DHT22;33316;52.298;9.056;2023-05-07T13:38:27;16.40;76.00
47590;DHT22;33316;52.298;9.056;2023-05-07T13:40:54;16.50;76.40
47590;DHT22;33316;52.298;9.056;2023-05-07T13:43:21;16.50;76.20
47590;DHT22;33316;52.298;9.056;2023-05-07T13:45:47;16.60;76.40
47590;DHT22;33316;52.298;9.056;2023-05-07T13:48:15;16.60;76.50
47590;DHT22;33316;52.298;9.056;2023-05-07T13:50:42;16.60;75.60
47590;DHT22;33316;52.298;9.056;2023-05-07T13:53:09;16.60;75.70
47590;DHT22;33316;52.298;9.056;2023-05-07T13:55:35;16.50;75.20
47590;DHT22;33316;52.298;9.056;2023-05-07T13:58:02;16.50;75.10
47590;DHT22;33316;52.298;9.056;2023-05-07T14:00:29;16.50;75.40
47590;DHT22;33316;52.298;9.056;2023-05-07T14:02:56;16.50;76.10
47590;DHT22;33316;52.298;9.056;2023-05-07T14:05:26;16.50;75.60
47590;DHT22;33316;52.298;9.056;2023-05-07T14:07:53;16.60;76.20
47590;DHT22;33316;52.298;9.056;2023-05-07T14:10:20;16.60;75.60
47590;DHT22;33316;52.298;9.056;2023-05-07T14:12:47;16.60;74.90
47590;DHT22;33316;52.298;9.056;2023-05-07T14:15:14;16.60;75.60
47590;DHT22;33316;52.298;9.056;2023-05-07T14:17:44;16.50;74.80
47590;DHT22;33316;52.298;9.056;2023-05-07T14:20:12;16.60;75.10
47590;DHT22;33316;52.298;9.056;2023-05-07T14:22:40;16.50;74.80
47590;DHT22;33316;52.298;9.056;2023-05-07T14:25:10;16.50;74.80
47590;DHT22;33316;52.298;9.056;2023-05-07T14:27:41;16.50;74.90
47590;DHT22;33316;52.298;9.056;2023-05-07T14:30:11;16.50;74.90
47590;DHT22;33316;52.298;9.056;2023-05-07T14:32:38;16.60;75.00
47590;DHT22;33316;52.298;9.056;2023-05-07T14:35:05;16.60;75.30
47590;DHT22;33316;52.298;9.056;2023-05-07T14:37:36;16.60;74.60
47590;DHT22;33316;52.298;9.056;2023-05-07T14:40:08;16.70;74.80
47590;DHT22;33316;52.298;9.056;2023-05-07T14:42:34;16.70;74.50
47590;DHT22;33316;52.298;9.056;2023-05-07T14:45:02;16.70;74.00
47590;DHT22;33316;52.298;9.056;2023-05-07T14:47:35;16.70;74.30
47590;DHT22;33316;52.298;9.056;2023-05-07T14:50:05;16.70;74.10
47590;DHT22;33316;52.298;9.056;2023-05-07T14:52:32;16.80;74.20
47590;DHT22;33316;52.298;9.056;2023-05-07T14:54:58;16.80;74.50
47590;DHT22;33316;52.298;9.056;2023-05-07T14:57:32;16.80;74.30
47590;DHT22;33316;52.298;9.056;2023-05-07T15:00:00;16.80;73.80
47590;DHT22;33316;52.298;9.056;2023-05-07T15:02:27;16.80;74.00
47590;DHT22;33316;52.298;9.056;2023-05-07T15:04:54;16.80;74.10
47590;DHT22;33316;52.298;9.056;2023-05-07T15:07:20;16.90;74.10
47590;DHT22;33316;52.298;9.056;2023-05-07T15:09:47;16.90;74.10
47590;DHT22;33316;52.298;9.056;2023-05-07T15:12:17;16.80;73.60
47590;DHT22;33316;52.298;9.056;2023-05-07T15:14:45;16.80;73.70
47590;DHT22;33316;52.298;9.056;2023-05-07T15:17:14;16.90;74.10
47590;DHT22;33316;52.298;9.056;2023-05-07T15:19:41;16.80;74.20
47590;DHT22;33316;52.298;9.056;2023-05-07T15:22:08;16.80;74.30
47590;DHT22;33316;52.298;9.056;2023-05-07T15:24:34;16.80;74.20
47590;DHT22;33316;52.298;9.056;2023-05-07T15:27:02;16.70;75.00
47590;DHT22;33316;52.298;9.056;2023-05-07T15:29:29;16.70;74.10
47590;DHT22;33316;52.298;9.056;2023-05-07T15:31:57;16.60;74.10
47590;DHT22;33316;52.298;9.056;2023-05-07T15:34:23;16.50;74.50
47590;DHT22;33316;52.298;9.056;2023-05-07T15:36:50;16.50;74.60
47590;DHT22;33316;52.298;9.056;2023-05-07T15:39:17;16.40;74.80
47590;DHT22;33316;52.298;9.056;2023-05-07T15:41:43;16.40;74.90